Aérodrome :
LOGIN :

S'inscrire | Disclaimer

   EN    FR    IT 

 










Légende :    VFR   VFR Marginal   IFR   IFR Intensif   IFR Très Intensif
Visi : 
Plafond : 
>= 8 km
>= 3000ft
5 à 8 km
1000 à 3000 ft
1500m à 5 km
500 à 1000 ft
800 à 1500m
200 à 500 ft
< 800m
< 200 ft
Symboles :   Orages  Brouillard  Fortes neiges  Fortes précipitations  Vent > 20 kt
SIGMETs :   Divers  Orages  Givrage  Turbulence  Onde Orograph.  Cendres Volcan.







- Altitude de l'aérodrome : 138 ft
- Code IATA : BIO


LEBB - Bilbao

DERNIER METAR :
  • 181400Z 27011KT 230V310 CAVOK 28/15 Q1007 NOSIG

METARs EXPIRÉS :
  • 181330Z 24010KT 180V280 CAVOK 35/07 Q1007 NOSIG
  • 181300Z 23007KT 150V280 CAVOK 35/06 Q1007 NOSIG
  • 181230Z 18010G21KT 120V270 CAVOK 35/10 Q1007 NOSIG
  • 181200Z 18013KT 140V250 CAVOK 34/09 Q1008 NOSIG
  • 181130Z VRB06KT CAVOK 34/10 Q1008 NOSIG

TAF AMD TAF LEBB
Valide du 18 à 13h jusqu'au 19 à 12h UTC


181356Z 1813/1912 VRB05KT 9999 FEW030 TX34/1814Z TN14/1905Z
TEMPO 1813/1821 32010KT
TEMPO 1813/1816 29015G28KT
Pas de NOTAMs connus pour ce terrain.



MET'MAP, la Météo Aéronautique d'un coup d'oeil ! - Copyright ORBIFLY Décembre 2007 - Disclaimer

ORBIFLY MET'MAP TEAM :

Programmation & Développement : Alexandra Zaïnal
Conception & Développement : Baudouin d'Aumeries
Co-Programmation & Développement : Marc-Olivier Méhu
Soutien technique & logistique : Manuel Goepfert

Contact : metmap@orbifly.com




SOURCES & CREDITS :

   NOAA